Airfield :
LOGIN :

Register | Disclaimer

   EN    FR    IT 

 










Legend :    VFR   Marginal VFR   IFR   Intensive IFR   Very Intensive IFR
Visi :
Ceiling :
>= 8 km
>= 3000ft
5 to 8 km
1000 to 3000 ft
1500m to 5 km
500 to 1000 ft
800 to 1500m
200 to 500 ft
< 800m
< 200 ft
Symbols :   Thunderstorms  Fog  Heavy snow  Heavy precipitations  Wind > 20 kt
SIGMETs :     Misc.  Thunderstorms  Icing  Turbulence  Mountain Waves  Volcanic Ashes






- Airport Elevation : 8 ft
- IATA code : JCU


GECE - Ceuta Heliport

CURRENT METAR :
  • 271900Z AUTO VRB02KT CAVOK 17/14 Q1022

EXPIRED METARs :
  • 271830Z AUTO 11001KT CAVOK 17/14 Q1022
  • 271800Z AUTO VRB01KT CAVOK 17/14 Q1022
  • 271730Z AUTO VRB02KT 9999 FEW016/// 17/14 Q1022
  • 271700Z AUTO 07003KT 030V120 9999 SCT015/// BKN017/// 17/14 Q1022
  • 271630Z AUTO 10003KT 020V150 9999 FEW015/// SCT018/// 18/14 Q1022

TAF TAF GECE
Valid from the 27 at 15:00 until the 28 at 15:00 UTC


271400Z 2715/2815 08008KT 9999 SCT020 TX18/2814Z TN15/2806Z
BECMG 2719/2721 29011KT
PROB30
TEMPO 2810/2815 28015G25KT



MET'MAP, your aeronautical weather chart ! - Copyright ORBIFLY December 2007 - Disclaimer

ORBIFLY MET'MAP TEAM :

Programming & Development : Alexandra Zaïnal
Original concept : Baudouin d'Aumeries
Technical & hardware support : Manuel Goepfert
Assistance : Marc-Olivier Méhu




SOURCES & CREDITS :

   NOAA